createdAt,value
2023-04-22T00:02:05.084Z,11.20
2023-04-22T00:05:08.911Z,10.93
2023-04-22T00:08:11.760Z,11.03
2023-04-22T00:11:14.806Z,10.83
2023-04-22T00:14:17.563Z,10.83
2023-04-22T00:17:20.601Z,10.71
2023-04-22T00:20:23.350Z,10.54
2023-04-22T00:23:26.340Z,10.47
2023-04-22T00:26:28.957Z,10.48
2023-04-22T00:29:32.052Z,10.25
2023-04-22T00:32:34.830Z,10.18
2023-04-22T00:35:37.947Z,10.16
2023-04-22T00:38:42.414Z,10.15
2023-04-22T00:41:47.128Z,10.07
2023-04-22T00:44:51.725Z,10.02
2023-04-22T00:47:55.021Z,9.96
2023-04-22T00:50:59.934Z,9.90
2023-04-22T00:54:04.711Z,9.91
2023-04-22T00:57:07.403Z,9.74
2023-04-22T01:00:10.784Z,9.89
2023-04-22T01:03:15.765Z,9.90
2023-04-22T01:06:20.398Z,9.73
2023-04-22T01:09:23.549Z,9.56
2023-04-22T01:12:26.706Z,9.36
2023-04-22T01:15:29.522Z,9.36
2023-04-22T01:18:33.176Z,9.29
2023-04-22T01:21:36.085Z,9.16
2023-04-22T01:24:39.088Z,9.18
2023-04-22T01:27:42.332Z,9.14
2023-04-22T01:30:45.359Z,9.08
2023-04-22T01:33:48.478Z,9.09
2023-04-22T01:36:51.565Z,9.07
2023-04-22T01:39:55.092Z,9.07
2023-04-22T01:43:01.960Z,8.82
2023-04-22T01:46:05.866Z,8.63
2023-04-22T01:49:09.371Z,8.78
2023-04-22T01:52:12.242Z,8.89
2023-04-22T01:55:15.506Z,8.75
2023-04-22T01:58:18.901Z,8.71
2023-04-22T02:01:22.226Z,8.71
2023-04-22T02:04:25.331Z,8.54
2023-04-22T02:07:28.081Z,8.52
2023-04-22T02:10:31.318Z,8.60
2023-04-22T02:13:41.277Z,8.58
2023-04-22T02:16:44.354Z,8.43
2023-04-22T02:19:47.401Z,8.43
2023-04-22T02:22:50.889Z,8.69
2023-04-22T02:25:56.040Z,8.44
2023-04-22T02:28:58.806Z,8.49
2023-04-22T02:32:02.323Z,8.53
2023-04-22T02:35:05.490Z,8.44
2023-04-22T02:38:08.493Z,8.36
2023-04-22T02:41:11.454Z,8.61
2023-04-22T02:44:14.411Z,8.64
2023-04-22T02:47:17.577Z,8.66
2023-04-22T02:50:21.908Z,8.66
2023-04-22T02:53:24.589Z,8.51
2023-04-22T02:56:27.528Z,8.63
2023-04-22T02:59:31.968Z,8.33
2023-04-22T03:02:35.375Z,8.28
2023-04-22T03:05:40.612Z,8.21
2023-04-22T03:08:44.021Z,7.99
2023-04-22T03:11:46.727Z,8.08
2023-04-22T03:14:49.771Z,8.14
2023-04-22T03:17:52.652Z,8.06
2023-04-22T03:20:55.910Z,8.06
2023-04-22T03:23:59.668Z,7.88
2023-04-22T03:27:04.070Z,7.74
2023-04-22T03:30:07.327Z,7.80
2023-04-22T03:33:11.685Z,7.70
2023-04-22T03:36:15.864Z,7.66
2023-04-22T03:39:19.206Z,7.62
2023-04-22T03:42:21.994Z,7.69
2023-04-22T03:45:24.938Z,7.67
2023-04-22T03:48:30.146Z,7.68
2023-04-22T03:51:33.322Z,7.54
2023-04-22T03:54:36.563Z,7.56
2023-04-22T03:57:41.041Z,7.44
2023-04-22T04:00:45.488Z,7.93
2023-04-22T04:03:50.306Z,7.82
2023-04-22T04:06:54.172Z,7.62
2023-04-22T04:09:57.155Z,7.52
2023-04-22T04:12:59.952Z,7.51
2023-04-22T04:16:04.274Z,8.34
2023-04-22T04:19:07.472Z,8.05
2023-04-22T04:22:11.398Z,8.16
2023-04-22T04:25:15.035Z,8.55
2023-04-22T04:28:19.396Z,8.75
2023-04-22T04:31:25.011Z,8.31
2023-04-22T04:34:28.747Z,8.22
2023-04-22T04:37:32.382Z,8.23
2023-04-22T04:40:37.242Z,8.30
2023-04-22T04:43:40.782Z,8.50
2023-04-22T04:46:46.790Z,8.56
2023-04-22T04:49:53.313Z,8.83
2023-04-22T04:52:56.387Z,8.82
2023-04-22T04:55:59.676Z,9.11
2023-04-22T04:59:03.335Z,9.35
2023-04-22T05:02:07.629Z,9.39
2023-04-22T05:05:11.309Z,9.61
2023-04-22T05:08:15.182Z,10.07
2023-04-22T05:11:18.568Z,10.51
2023-04-22T05:14:21.675Z,10.91
2023-04-22T05:17:24.952Z,11.06
2023-04-22T05:20:28.858Z,11.41
2023-04-22T05:23:32.220Z,12.08
2023-04-22T05:26:36.226Z,12.14
2023-04-22T05:29:41.423Z,12.03
2023-04-22T05:32:44.805Z,12.52
2023-04-22T05:35:47.969Z,12.92
2023-04-22T05:38:50.653Z,12.84
2023-04-22T05:41:54.823Z,13.05
2023-04-22T05:44:57.668Z,13.30
2023-04-22T05:48:00.750Z,13.59
2023-04-22T05:51:06.248Z,13.40
2023-04-22T05:54:09.578Z,13.80
2023-04-22T05:57:12.570Z,13.33
2023-04-22T06:00:16.966Z,14.02
2023-04-22T06:03:20.685Z,14.19
2023-04-22T06:06:24.294Z,13.61
2023-04-22T06:09:27.361Z,14.39
2023-04-22T06:12:30.025Z,14.18
2023-04-22T06:15:34.462Z,14.19
2023-04-22T06:18:38.252Z,14.44
2023-04-22T06:21:43.329Z,14.50
2023-04-22T06:24:48.116Z,14.65
2023-04-22T06:27:52.019Z,15.09
2023-04-22T06:30:56.529Z,15.25
2023-04-22T06:33:59.938Z,15.08
2023-04-22T06:37:02.870Z,15.49
2023-04-22T06:40:06.690Z,15.40
2023-04-22T06:43:12.187Z,15.61
2023-04-22T06:46:17.002Z,15.32
2023-04-22T06:49:23.589Z,15.34
2023-04-22T06:52:31.689Z,15.72
2023-04-22T06:55:34.677Z,15.94
2023-04-22T06:58:37.891Z,16.36
2023-04-22T07:01:41.300Z,16.85
2023-04-22T07:04:44.599Z,16.97
2023-04-22T07:07:47.922Z,16.90
2023-04-22T07:10:52.231Z,16.71
2023-04-22T07:13:57.143Z,16.60
2023-04-22T07:17:00.592Z,16.54
2023-04-22T07:20:04.634Z,16.64
2023-04-22T07:23:07.833Z,17.67
2023-04-22T07:26:10.861Z,17.02
2023-04-22T07:29:14.272Z,17.23
2023-04-22T07:32:17.166Z,17.56
2023-04-22T07:35:20.435Z,17.25
2023-04-22T07:38:23.338Z,17.64
2023-04-22T07:41:26.528Z,17.70
2023-04-22T07:44:29.612Z,18.03
2023-04-22T07:47:32.853Z,18.00
2023-04-22T07:50:38.162Z,17.92
2023-04-22T07:53:41.900Z,18.06
2023-04-22T07:56:44.692Z,17.99
2023-04-22T07:59:47.734Z,18.12
2023-04-22T08:02:52.038Z,18.47
2023-04-22T08:05:58.223Z,18.04
2023-04-22T08:09:01.067Z,18.25
2023-04-22T08:12:04.362Z,18.27
2023-04-22T08:15:07.571Z,18.38
2023-04-22T08:18:11.059Z,18.72
2023-04-22T08:21:14.602Z,18.91
2023-04-22T08:24:17.846Z,18.70
2023-04-22T08:27:22.990Z,19.15
2023-04-22T08:30:26.357Z,19.44
2023-04-22T08:33:29.231Z,19.69
2023-04-22T08:36:32.580Z,19.71
2023-04-22T08:39:35.538Z,19.49
2023-04-22T08:42:38.553Z,19.53
2023-04-22T08:45:42.221Z,19.68
2023-04-22T08:48:47.427Z,19.72
2023-04-22T08:51:50.604Z,19.75
2023-04-22T08:54:53.521Z,19.71
2023-04-22T08:57:56.361Z,20.15
2023-04-22T09:01:00.530Z,20.40
2023-04-22T09:04:07.130Z,20.68
2023-04-22T09:07:10.937Z,20.47
2023-04-22T09:10:14.029Z,20.71
2023-04-22T09:13:17.845Z,20.95
2023-04-22T09:16:20.596Z,20.85
2023-04-22T09:19:25.568Z,20.86
2023-04-22T09:22:29.983Z,20.46
2023-04-22T09:25:37.411Z,20.79
2023-04-22T09:28:49.630Z,21.36
2023-04-22T09:31:52.691Z,20.98
2023-04-22T09:34:55.643Z,20.93
2023-04-22T09:38:00.525Z,20.90
2023-04-22T09:41:10.702Z,21.10
2023-04-22T09:44:20.643Z,20.82
2023-04-22T09:47:26.003Z,20.91
2023-04-22T09:50:29.717Z,21.29
2023-04-22T09:53:37.315Z,21.04
2023-04-22T09:56:49.392Z,21.24
2023-04-22T09:59:53.100Z,21.10
2023-04-22T10:02:56.201Z,21.75
2023-04-22T10:05:59.469Z,21.72
2023-04-22T10:09:02.855Z,21.68
2023-04-22T10:12:05.894Z,21.89
2023-04-22T10:15:08.986Z,21.66
2023-04-22T10:18:23.435Z,21.12
2023-04-22T10:21:31.574Z,21.30
2023-04-22T10:24:37.494Z,21.26
2023-04-22T10:27:40.704Z,21.14
2023-04-22T10:30:43.911Z,21.65
2023-04-22T10:33:46.566Z,21.62
2023-04-22T10:37:01.629Z,22.02
2023-04-22T10:40:11.196Z,21.44
2023-04-22T10:43:14.301Z,21.06
2023-04-22T10:46:32.963Z,20.74
2023-04-22T10:49:36.190Z,20.93
2023-04-22T10:52:39.787Z,21.00
2023-04-22T10:55:51.725Z,20.92
2023-04-22T10:58:56.525Z,22.45
2023-04-22T11:02:06.729Z,21.67
2023-04-22T11:05:27.500Z,21.94
2023-04-22T11:08:30.841Z,21.29
2023-04-22T11:11:33.486Z,21.35
2023-04-22T11:14:36.737Z,21.74
2023-04-22T11:17:42.556Z,21.51
2023-04-22T11:20:48.437Z,21.57
2023-04-22T11:23:52.939Z,21.36
2023-04-22T11:26:57.118Z,21.94
2023-04-22T11:30:12.467Z,22.05
2023-04-22T11:33:19.517Z,22.42
2023-04-22T11:36:22.579Z,23.04
2023-04-22T11:39:35.476Z,22.74
2023-04-22T11:42:38.510Z,23.48
2023-04-22T11:45:41.573Z,23.34
2023-04-22T11:48:44.215Z,23.43
2023-04-22T11:51:56.843Z,22.30
2023-04-22T11:55:00.277Z,21.87
2023-04-22T11:58:07.977Z,21.06
2023-04-22T12:01:14.112Z,21.36
2023-04-22T12:04:17.453Z,21.18
2023-04-22T12:07:20.139Z,21.20
2023-04-22T12:10:23.670Z,21.24
2023-04-22T12:13:33.194Z,21.42
2023-04-22T12:16:43.135Z,22.06
2023-04-22T12:19:48.640Z,22.72
2023-04-22T12:22:53.373Z,22.96
2023-04-22T12:25:56.161Z,22.32
2023-04-22T12:29:00.619Z,22.23
2023-04-22T12:32:03.973Z,22.21
2023-04-22T12:35:08.626Z,22.92
2023-04-22T12:38:11.222Z,22.64
2023-04-22T12:41:15.897Z,23.06
2023-04-22T12:44:18.620Z,22.54
2023-04-22T12:47:21.679Z,22.10
2023-04-22T12:50:24.419Z,21.47
2023-04-22T12:53:28.249Z,21.87
2023-04-22T12:56:30.926Z,21.72
2023-04-22T12:59:33.839Z,21.31
2023-04-22T13:02:36.735Z,21.40
2023-04-22T13:05:40.082Z,21.55
2023-04-22T13:08:42.636Z,21.28
2023-04-22T13:11:45.674Z,21.49
2023-04-22T13:14:48.370Z,21.26
2023-04-22T13:17:51.647Z,21.34
2023-04-22T13:20:58.092Z,21.67
2023-04-22T13:24:00.954Z,21.84
2023-04-22T13:27:03.717Z,21.53
2023-04-22T13:30:08.011Z,21.65
2023-04-22T13:33:10.762Z,21.47
2023-04-22T13:36:13.860Z,21.22
2023-04-22T13:39:16.961Z,21.20
2023-04-22T13:42:20.435Z,21.03
2023-04-22T13:45:23.190Z,21.13
2023-04-22T13:48:27.433Z,21.32
2023-04-22T13:51:30.942Z,21.32
2023-04-22T13:54:33.905Z,21.50
2023-04-22T13:57:36.598Z,21.54
2023-04-22T14:00:39.686Z,21.67
2023-04-22T14:03:42.885Z,22.42
2023-04-22T14:06:45.702Z,22.62
2023-04-22T14:09:48.699Z,23.05
2023-04-22T14:12:51.504Z,23.38
2023-04-22T14:15:54.539Z,22.71
2023-04-22T14:18:58.456Z,22.89
2023-04-22T14:22:01.365Z,22.60
2023-04-22T14:25:04.392Z,22.47
2023-04-22T14:28:07.448Z,22.03
2023-04-22T14:31:10.449Z,22.46
2023-04-22T14:34:13.404Z,22.18
2023-04-22T14:37:16.122Z,22.11
2023-04-22T14:40:20.181Z,21.32
2023-04-22T14:43:22.797Z,21.16
2023-04-22T14:46:25.759Z,20.98
2023-04-22T14:49:28.627Z,20.71
2023-04-22T14:52:31.903Z,20.74
2023-04-22T14:55:35.485Z,20.93
2023-04-22T14:58:38.637Z,20.77
2023-04-22T15:01:43.213Z,20.66
2023-04-22T15:04:46.329Z,20.52
2023-04-22T15:07:49.291Z,20.65
2023-04-22T15:10:52.474Z,20.80
2023-04-22T15:13:55.146Z,21.26
2023-04-22T15:16:58.223Z,21.30
2023-04-22T15:20:05.266Z,21.68
2023-04-22T15:23:10.137Z,21.85
2023-04-22T15:26:12.958Z,21.47
2023-04-22T15:29:15.989Z,21.34
2023-04-22T15:32:18.620Z,21.16
2023-04-22T15:35:23.390Z,21.20
2023-04-22T15:38:26.050Z,21.26
2023-04-22T15:41:29.025Z,21.25
2023-04-22T15:44:32.501Z,21.46
2023-04-22T15:47:36.165Z,21.55
2023-04-22T15:50:40.770Z,21.51
2023-04-22T15:53:45.647Z,21.58
2023-04-22T15:56:48.313Z,21.46
2023-04-22T15:59:59.291Z,21.43
2023-04-22T16:03:16.299Z,21.35
2023-04-22T16:06:19.979Z,21.39
2023-04-22T16:09:22.774Z,21.44
2023-04-22T16:12:25.983Z,21.71
2023-04-22T16:15:28.612Z,21.64
2023-04-22T16:18:31.693Z,21.56
2023-04-22T16:21:34.460Z,21.96
2023-04-22T16:24:37.437Z,22.10
2023-04-22T16:27:40.102Z,22.26
2023-04-22T16:30:43.109Z,22.42
2023-04-22T16:33:46.115Z,21.93
2023-04-22T16:36:49.007Z,22.02
2023-04-22T16:39:51.978Z,21.93
2023-04-22T16:42:57.112Z,21.91
2023-04-22T16:45:59.970Z,21.71
2023-04-22T16:49:02.918Z,21.37
2023-04-22T16:52:05.576Z,20.96
2023-04-22T16:55:08.795Z,20.61
2023-04-22T16:58:12.397Z,20.31
2023-04-22T17:01:15.591Z,20.01
2023-04-22T17:04:18.381Z,19.66
2023-04-22T17:07:25.291Z,19.30
2023-04-22T17:10:28.888Z,19.09
2023-04-22T17:13:31.885Z,18.59
2023-04-22T17:16:34.568Z,18.42
2023-04-22T17:19:37.629Z,18.30
2023-04-22T17:22:40.235Z,17.95
2023-04-22T17:25:43.243Z,17.89
2023-04-22T17:28:46.043Z,17.77
2023-04-22T17:31:50.117Z,17.49
2023-04-22T17:34:53.523Z,17.42
2023-04-22T17:37:57.876Z,17.12
2023-04-22T17:41:00.662Z,17.11
2023-04-22T17:44:04.294Z,16.89
2023-04-22T17:47:07.618Z,16.58
2023-04-22T17:50:11.211Z,16.43
2023-04-22T17:53:13.990Z,16.28
2023-04-22T17:56:17.250Z,16.12
2023-04-22T17:59:20.020Z,16.03
2023-04-22T18:02:23.592Z,15.85
2023-04-22T18:05:29.663Z,15.71
2023-04-22T18:08:32.323Z,15.60
2023-04-22T18:11:35.439Z,15.38
2023-04-22T18:14:38.194Z,15.13
2023-04-22T18:17:41.155Z,15.03
2023-04-22T18:20:45.753Z,15.01
2023-04-22T18:23:49.151Z,14.87
2023-04-22T18:26:52.818Z,14.75
2023-04-22T18:29:55.775Z,14.66
2023-04-22T18:32:58.679Z,14.58
2023-04-22T18:36:02.190Z,14.48
2023-04-22T18:39:05.654Z,14.21
2023-04-22T18:42:08.678Z,14.24
2023-04-22T18:45:12.075Z,14.10
2023-04-22T18:48:15.146Z,14.03
2023-04-22T18:51:17.895Z,13.89
2023-04-22T18:54:20.888Z,13.77
2023-04-22T18:57:23.545Z,13.69
2023-04-22T19:00:27.646Z,13.50
2023-04-22T19:03:30.621Z,13.41
2023-04-22T19:06:33.710Z,13.54
2023-04-22T19:09:36.745Z,13.38
2023-04-22T19:12:39.967Z,13.32
2023-04-22T19:15:43.030Z,13.35
2023-04-22T19:18:46.507Z,13.24
2023-04-22T19:21:49.361Z,13.07
2023-04-22T19:24:52.403Z,12.92
2023-04-22T19:27:55.528Z,12.73
2023-04-22T19:31:01.065Z,12.52
2023-04-22T19:34:04.069Z,12.57
2023-04-22T19:37:08.405Z,12.57
2023-04-22T19:40:12.320Z,12.56
2023-04-22T19:43:19.157Z,12.49
2023-04-22T19:46:22.174Z,12.31
2023-04-22T19:49:25.705Z,12.18
2023-04-22T19:52:29.642Z,12.08
2023-04-22T19:55:33.827Z,12.03
2023-04-22T19:58:38.452Z,11.96
2023-04-22T20:01:41.728Z,11.88
2023-04-22T20:04:45.267Z,11.72
2023-04-22T20:07:49.863Z,11.54
2023-04-22T20:10:53.700Z,11.46
2023-04-22T20:13:56.795Z,11.34
2023-04-22T20:17:00.136Z,11.42
2023-04-22T20:20:07.386Z,11.38
2023-04-22T20:23:12.819Z,11.41
2023-04-22T20:26:19.904Z,11.32
2023-04-22T20:29:24.295Z,11.24
2023-04-22T20:32:28.758Z,10.94
2023-04-22T20:35:32.139Z,10.89
2023-04-22T20:38:37.070Z,10.96
2023-04-22T20:41:40.551Z,11.00
2023-04-22T20:44:43.448Z,11.05
2023-04-22T20:47:46.594Z,11.04
2023-04-22T20:50:49.298Z,10.81
2023-04-22T20:53:52.580Z,10.70
2023-04-22T20:56:55.158Z,10.69
2023-04-22T20:59:58.302Z,10.63
2023-04-22T21:03:02.250Z,10.48
2023-04-22T21:06:05.837Z,10.35
2023-04-22T21:09:09.246Z,10.33
2023-04-22T21:12:13.491Z,10.32
2023-04-22T21:15:16.550Z,10.33
2023-04-22T21:18:23.840Z,10.15
2023-04-22T21:21:33.961Z,10.04
2023-04-22T21:24:37.434Z,10.00
2023-04-22T21:27:40.830Z,9.99
2023-04-22T21:30:44.665Z,9.93
2023-04-22T21:33:47.395Z,9.78
2023-04-22T21:36:50.952Z,9.76
2023-04-22T21:39:53.725Z,9.96
2023-04-22T21:42:56.760Z,9.87
2023-04-22T21:45:59.364Z,9.89
2023-04-22T21:49:02.306Z,9.71
2023-04-22T21:52:05.053Z,9.60
2023-04-22T21:55:08.398Z,9.42
2023-04-22T21:58:11.562Z,9.39
2023-04-22T22:01:14.532Z,9.34
2023-04-22T22:04:17.701Z,9.28
2023-04-22T22:07:22.148Z,9.23
2023-04-22T22:10:25.356Z,9.21
2023-04-22T22:13:27.975Z,9.18
2023-04-22T22:16:31.296Z,9.10
2023-04-22T22:19:34.193Z,9.21
2023-04-22T22:22:41.777Z,9.28
2023-04-22T22:25:44.778Z,9.16
2023-04-22T22:28:47.879Z,9.25
2023-04-22T22:31:50.728Z,9.34
2023-04-22T22:34:53.828Z,9.15
2023-04-22T22:37:56.566Z,9.04
2023-04-22T22:40:59.603Z,8.92
2023-04-22T22:44:02.253Z,8.80
2023-04-22T22:47:06.124Z,8.73
2023-04-22T22:50:09.097Z,8.69
2023-04-22T22:53:12.697Z,8.69
2023-04-22T22:56:15.840Z,8.54
2023-04-22T22:59:18.845Z,8.62
2023-04-22T23:02:21.717Z,8.69
2023-04-22T23:05:24.786Z,9.04
2023-04-22T23:08:27.544Z,8.73
2023-04-22T23:11:30.604Z,8.59
2023-04-22T23:14:33.993Z,8.71
2023-04-22T23:17:37.705Z,8.60
2023-04-22T23:20:41.823Z,8.62
2023-04-22T23:23:45.207Z,8.57
2023-04-22T23:26:48.226Z,8.37
2023-04-22T23:29:51.370Z,8.31
2023-04-22T23:32:57.629Z,8.33
2023-04-22T23:36:01.262Z,8.16
2023-04-22T23:39:05.881Z,8.12
2023-04-22T23:42:08.879Z,8.14
2023-04-22T23:45:11.790Z,8.08
2023-04-22T23:48:14.811Z,8.16
2023-04-22T23:51:17.580Z,8.22
2023-04-22T23:54:21.267Z,8.32
2023-04-22T23:57:24.139Z,8.11
